Time;durP1;ratioP1;P1;durP2;ratioP2;P2;SDS_P1;SDS_P2;PMS_P1;PMS_P2;Temp;Humidity;BMP_temperature;BMP_pressure;BME280_temperature;BME280_humidity;BME280_pressure;Samples;Min_cycle;Max_cycle;Signal;HPM_P1;HPM_P2
2022/12/15 00:40:59;;;;;;;2.50;1.55;;;;;;;15.36;58.74;95876.03;5117168;28;20054;-33
2022/12/15 00:43:26;;;;;;;1.88;1.40;;;;;;;15.40;58.54;95869.16;5116375;28;20020;-33
2022/12/15 00:48:37;;;;;;;2.08;1.45;;;;;;;15.38;58.48;95879.03;5116557;28;20034;-33
2022/12/15 00:51:02;;;;;;;1.58;1.48;;;;;;;15.36;58.59;95876.78;5116663;28;20039;-33
2022/12/15 01:21:00;;;;;;;1.75;1.55;;;;;;;15.36;58.38;95870.56;5115595;28;20023;-33
2022/12/15 01:23:26;;;;;;;3.05;1.95;;;;;;;15.33;58.61;95860.59;5115897;28;20028;-33
2022/12/15 01:25:52;;;;;;;2.80;2.00;;;;;;;15.32;58.50;95857.13;5115856;28;20023;-33
2022/12/15 01:28:19;;;;;;;3.42;1.80;;;;;;;15.31;58.82;95844.69;5115891;28;20072;-35
2022/12/15 01:30:45;;;;;;;2.80;1.83;;;;;;;15.31;58.55;95839.22;5108184;28;20027;-34
2022/12/15 01:33:11;;;;;;;2.92;2.13;;;;;;;15.29;58.82;95844.38;5095330;28;20024;-33
2022/12/15 01:35:37;;;;;;;2.30;1.63;;;;;;;15.35;58.24;95834.28;5095250;28;20111;-34
2022/12/15 01:38:02;;;;;;;2.92;1.95;;;;;;;15.34;58.57;95838.25;5095093;28;20104;-33
2022/12/15 01:40:48;;;;;;;2.17;1.98;;;;;;;15.34;58.44;95840.97;5095227;28;20024;-36
2022/12/15 01:43:16;;;;;;;3.88;2.08;;;;;;;15.30;58.70;95853.34;5094871;28;20024;-34
2022/12/15 01:45:47;;;;;;;2.45;1.90;;;;;;;15.37;58.38;95852.94;5095039;28;20043;-34
2022/12/15 01:48:18;;;;;;;2.97;1.95;;;;;;;15.28;58.66;95859.25;5095399;28;20024;-34
2022/12/15 01:51:00;;;;;;;3.00;1.85;;;;;;;15.29;58.56;95870.94;5095043;28;20024;-35
2022/12/15 01:53:26;;;;;;;2.47;1.92;;;;;;;15.31;58.59;95863.78;5094865;28;20070;-33
2022/12/15 01:55:53;;;;;;;2.72;1.83;;;;;;;15.29;58.55;95857.28;5094950;28;20062;-35
2022/12/15 01:58:20;;;;;;;2.60;1.90;;;;;;;15.30;58.63;95856.81;5094965;28;20032;-33
2022/12/15 02:00:45;;;;;;;2.10;1.80;;;;;;;15.34;58.39;95849.16;5094726;28;20024;-33
2022/12/15 02:03:12;;;;;;;2.20;1.90;;;;;;;15.29;58.54;95849.84;5094720;28;20443;-34
2022/12/15 02:05:40;;;;;;;4.93;2.00;;;;;;;15.31;58.50;95847.41;5094705;28;20020;-33
2022/12/15 02:08:06;;;;;;;2.58;2.13;;;;;;;15.30;58.51;95848.63;5093942;28;20060;-36
2022/12/15 02:11:06;;;;;;;2.35;1.85;;;;;;;15.30;58.65;95856.81;5094442;28;20020;-34
2022/12/15 02:13:57;;;;;;;1.90;1.67;;;;;;;15.30;58.54;95845.91;5094614;28;20027;-33
2022/12/15 02:16:45;;;;;;;1.95;1.65;;;;;;;15.32;58.69;95865.31;5094352;28;20112;-33
2022/12/15 02:19:29;;;;;;;2.75;2.00;;;;;;;15.26;58.58;95850.78;5094469;28;20020;-33
2022/12/15 02:22:16;;;;;;;2.20;1.90;;;;;;;15.31;58.53;95858.34;5094284;28;20028;-33
2022/12/15 02:25:03;;;;;;;2.13;1.60;;;;;;;15.28;58.50;95863.97;5094438;28;20169;-33
2022/12/15 02:27:34;;;;;;;1.85;1.65;;;;;;;15.28;58.54;95867.47;5094282;28;20031;-34
2022/12/15 02:30:09;;;;;;;2.50;1.80;;;;;;;15.31;58.44;95874.72;5094261;28;20042;-34
2022/12/15 02:33:13;;;;;;;2.00;1.63;;;;;;;15.21;58.92;95870.56;5094240;28;20067;-34
2022/12/15 02:35:46;;;;;;;2.45;1.60;;;;;;;15.27;58.56;95879.63;5080354;28;20131;-34
2022/12/15 02:38:11;;;;;;;;;;;;;;;15.27;58.57;95874.16;5094762;28;20512;-35
2022/12/15 02:40:37;;;;;;;2.20;1.83;;;;;;;15.24;58.74;95890.72;5093976;28;19946;-33
2022/12/15 02:43:05;;;;;;;1.63;1.30;;;;;;;15.27;58.57;95878.84;5093169;28;20028;-33
2022/12/15 02:45:38;;;;;;;1.73;1.40;;;;;;;15.28;58.74;95880.38;5094108;28;20031;-33
2022/12/15 02:48:17;;;;;;;1.75;1.40;;;;;;;15.30;58.58;95875.94;5093914;28;20024;-34
2022/12/15 02:50:51;;;;;;;1.88;1.20;;;;;;;15.28;58.75;95874.91;5093710;28;20380;-33
2022/12/15 02:53:47;;;;;;;1.50;1.35;;;;;;;15.22;58.84;95874.78;5094086;28;20032;-35
2022/12/15 02:56:42;;;;;;;1.35;1.15;;;;;;;15.22;58.77;95884.97;5094157;28;20389;-33
2022/12/15 02:59:18;;;;;;;1.42;1.05;;;;;;;15.23;58.87;95889.19;5094098;28;20055;-33
2022/12/15 03:01:51;;;;;;;1.77;1.30;;;;;;;15.27;58.88;95887.06;5094000;28;20046;-33
2022/12/15 03:04:17;;;;;;;;;;;;;;;15.25;58.76;95892.22;5092806;28;20042;-34
2022/12/15 03:06:42;;;;;;;1.10;1.00;;;;;;;15.24;58.61;95896.94;5093480;28;19908;-34
2022/12/15 03:09:08;;;;;;;1.63;1.20;;;;;;;15.23;58.92;95889.97;5093732;28;20034;-33
2022/12/15 03:11:35;;;;;;;1.15;1.02;;;;;;;15.26;58.72;95899.97;5093801;28;20033;-33
2022/12/15 03:14:01;;;;;;;1.42;0.95;;;;;;;15.27;58.77;95896.00;5101315;28;20043;-35
2022/12/15 03:16:26;;;;;;;2.33;1.20;;;;;;;15.28;58.67;95885.81;5113917;28;20063;-34
2022/12/15 03:18:52;;;;;;;1.65;1.10;;;;;;;15.28;58.64;95892.06;5113900;28;20028;-33
2022/12/15 03:21:17;;;;;;;1.05;0.90;;;;;;;15.25;58.71;95884.78;5113842;28;20028;-33
2022/12/15 03:23:43;;;;;;;1.27;1.10;;;;;;;15.17;58.98;95888.38;5101361;28;20024;-34
2022/12/15 03:26:08;;;;;;;1.00;0.80;;;;;;;15.20;58.93;95877.25;5093617;28;20024;-34
2022/12/15 03:28:34;;;;;;;1.52;1.15;;;;;;;15.21;59.03;95873.28;5093497;28;20020;-33
2022/12/15 03:30:59;;;;;;;1.30;1.10;;;;;;;15.19;58.94;95883.94;5093422;28;20107;-34
2022/12/15 03:33:25;;;;;;;1.27;1.10;;;;;;;15.23;58.88;95884.50;5093315;28;20047;-33
2022/12/15 03:35:50;;;;;;;1.23;1.00;;;;;;;15.30;58.71;95881.41;5093460;28;20067;-33
2022/12/15 03:38:17;;;;;;;1.02;0.80;;;;;;;15.33;58.47;95877.00;5092902;28;20020;-33
2022/12/15 03:40:42;;;;;;;1.33;0.90;;;;;;;15.23;58.74;95883.75;5093236;28;20521;-35
2022/12/15 03:43:08;;;;;;;1.10;1.00;;;;;;;15.21;58.63;95875.25;5093229;28;20016;-33
2022/12/15 03:45:33;;;;;;;0.95;0.75;;;;;;;15.14;58.88;95881.09;5093118;28;20024;-33
2022/12/15 03:47:59;;;;;;;1.33;1.10;;;;;;;15.14;58.99;95868.19;5093444;28;20058;-33
2022/12/15 03:50:27;;;;;;;1.40;0.90;;;;;;;15.18;59.09;95876.22;5093058;28;20020;-34
2022/12/15 03:52:58;;;;;;;1.20;1.00;;;;;;;15.24;58.46;95872.34;5091775;28;20035;-34
2022/12/15 03:55:25;;;;;;;1.20;1.05;;;;;;;15.20;58.86;95879.25;5096912;28;20080;-34
2022/12/15 03:57:51;;;;;;;1.40;1.15;;;;;;;15.12;58.95;95878.84;5097084;28;20024;-33
2022/12/15 04:00:18;;;;;;;1.05;0.95;;;;;;;15.20;58.66;95880.00;5097102;28;20046;-33
2022/12/15 04:02:45;;;;;;;1.20;1.08;;;;;;;15.21;58.64;95880.72;5096966;28;20157;-33
2022/12/15 04:05:25;;;;;;;1.20;1.08;;;;;;;15.14;59.00;95883.84;5097000;28;20107;-34
2022/12/15 04:07:51;;;;;;;1.75;1.25;;;;;;;15.14;58.94;95884.59;5097081;28;20032;-33
2022/12/15 04:10:17;;;;;;;1.40;1.20;;;;;;;15.18;58.76;95893.38;5096900;28;20028;-33
2022/12/15 04:12:42;;;;;;;1.60;1.20;;;;;;;15.14;58.91;95892.78;5096791;28;20020;-33
2022/12/15 04:15:09;;;;;;;1.60;1.17;;;;;;;15.20;58.56;95890.16;5097182;28;20028;-33
2022/12/15 04:17:34;;;;;;;1.75;1.40;;;;;;;15.20;58.55;95885.47;5096959;28;20528;-33
2022/12/15 04:20:09;;;;;;;2.40;1.60;;;;;;;15.14;58.74;95897.50;5096710;28;20110;-34
2022/12/15 04:22:39;;;;;;;1.65;1.30;;;;;;;15.20;58.51;95901.09;5096590;28;20016;-34
2022/12/15 05:33:36;;;;;;;3.08;2.08;;;;;;;15.09;58.74;95940.59;5095454;28;20380;-33
2022/12/15 05:36:02;;;;;;;2.20;1.98;;;;;;;15.06;58.96;95943.53;5095156;28;20024;-34
2022/12/15 05:38:27;;;;;;;2.20;1.92;;;;;;;15.11;58.75;95948.34;5095553;28;20023;-33
2022/12/15 05:40:56;;;;;;;2.50;2.03;;;;;;;15.19;58.37;95940.56;5101018;28;20437;-35
2022/12/15 05:43:22;;;;;;;3.15;2.53;;;;;;;15.19;58.55;95938.56;5115822;28;20439;-33
2022/12/15 05:45:47;;;;;;;2.25;2.05;;;;;;;15.17;58.52;95934.78;5114275;28;20080;-33
2022/12/15 05:48:13;;;;;;;2.03;1.80;;;;;;;15.12;58.87;95949.84;5115571;28;20028;-34
2022/12/15 05:50:38;;;;;;;2.40;2.10;;;;;;;15.19;58.60;95946.78;5115277;28;20467;-33
2022/12/15 05:53:04;;;;;;;2.50;2.00;;;;;;;15.19;58.50;95946.78;5114142;28;20077;-34
2022/12/15 05:55:29;;;;;;;2.47;2.10;;;;;;;15.11;58.83;95942.88;5115350;28;20024;-33
2022/12/15 05:57:55;;;;;;;2.40;1.83;;;;;;;15.12;58.67;95944.38;5115216;28;20026;-35
2022/12/15 06:00:21;;;;;;;1.73;1.55;;;;;;;15.16;58.43;95944.97;5115278;28;20020;-34
2022/12/15 06:02:46;;;;;;;2.22;1.73;;;;;;;15.08;58.70;95960.22;5115037;28;20483;-35
2022/12/15 06:05:12;;;;;;;2.00;1.70;;;;;;;15.12;58.73;95962.75;5115267;28;20070;-33
2022/12/15 06:07:37;;;;;;;2.17;1.75;;;;;;;15.18;58.42;95960.88;5115212;28;20049;-35
2022/12/15 06:10:04;;;;;;;2.17;1.85;;;;;;;15.07;58.93;95958.69;5115027;28;20543;-33
2022/12/15 06:12:29;;;;;;;2.00;1.52;;;;;;;15.20;58.50;95961.94;5114928;28;20027;-34
2022/12/15 06:14:56;;;;;;;2.15;1.67;;;;;;;15.14;58.56;95966.53;5114666;28;20490;-33
2022/12/15 06:17:21;;;;;;;2.10;1.58;;;;;;;15.07;58.78;95975.09;5114406;28;20033;-33
2022/12/15 06:19:47;;;;;;;2.03;1.65;;;;;;;15.13;58.73;95984.13;5114916;28;20534;-34
2022/12/15 06:22:12;;;;;;;2.00;1.80;;;;;;;15.11;58.62;95986.56;5115234;28;20479;-34
2022/12/15 06:24:38;;;;;;;2.17;1.80;;;;;;;15.11;58.84;95994.75;5114880;28;20019;-34
2022/12/15 06:27:03;;;;;;;3.55;1.80;;;;;;;15.17;58.65;96003.84;5114830;28;20031;-34
2022/12/15 06:29:29;;;;;;;2.42;1.80;;;;;;;15.15;58.66;96008.25;5114907;27;20372;-33
2022/12/15 06:31:54;;;;;;;3.72;2.30;;;;;;;15.15;58.60;96003.53;5114500;28;20027;-34
2022/12/15 06:34:20;;;;;;;3.17;2.35;;;;;;;15.19;58.51;96008.84;5114637;28;20057;-33
2022/12/15 06:36:46;;;;;;;3.88;2.75;;;;;;;15.15;58.71;96003.53;5114585;28;20027;-34
2022/12/15 06:39:13;;;;;;;4.38;2.45;;;;;;;15.20;58.58;96010.34;5114476;28;20049;-33
2022/12/15 06:41:40;;;;;;;2.78;2.30;;;;;;;15.16;58.61;96009.75;5114521;28;20087;-35
2022/12/15 06:44:06;;;;;;;3.55;2.03;;;;;;;15.04;58.87;96015.00;5113104;28;20376;-35
2022/12/15 06:46:33;;;;;;;3.08;1.92;;;;;;;15.10;58.89;96017.84;5114635;28;20110;-34
2022/12/15 06:48:59;;;;;;;4.80;2.60;;;;;;;15.13;58.62;96016.91;5114436;28;20046;-33
2022/12/15 06:51:26;;;;;;;3.40;2.28;;;;;;;15.10;58.70;96020.56;5114460;28;20051;-34
2022/12/15 06:53:52;;;;;;;3.83;2.28;;;;;;;15.13;58.64;96022.38;5114103;28;20028;-34
2022/12/15 06:56:37;;;;;;;3.72;2.72;;;;;;;15.14;58.57;96031.31;5114268;28;20019;-34
2022/12/15 06:59:04;;;;;;;4.25;2.40;;;;;;;15.02;59.06;96017.44;5114236;28;20102;-34
2022/12/15 07:01:30;;;;;;;3.80;2.28;;;;;;;15.09;58.89;96019.81;5110327;28;20106;-34
2022/12/15 07:03:58;;;;;;;2.88;2.17;;;;;;;15.03;59.10;96016.22;5088358;27;20114;-34
2022/12/15 07:06:24;;;;;;;3.20;2.17;;;;;;;15.15;58.44;96011.75;5087516;28;20027;-34
2022/12/15 07:08:52;;;;;;;3.47;2.70;;;;;;;15.14;58.61;96004.00;5087550;28;20050;-34
2022/12/15 07:11:19;;;;;;;3.50;2.35;;;;;;;15.16;58.60;96015.97;5086840;28;20057;-34
2022/12/15 07:13:49;;;;;;;3.40;2.60;;;;;;;15.05;59.02;96016.50;5078923;28;20284;-34
2022/12/15 07:16:14;;;;;;;2.60;2.00;;;;;;;15.13;58.64;96016.91;5076823;28;20028;-34
2022/12/15 07:18:40;;;;;;;3.55;2.40;;;;;;;15.13;58.74;96027.84;5076589;28;20150;-36
2022/12/15 07:21:08;;;;;;;3.17;2.40;;;;;;;15.09;59.05;96033.47;5081490;28;20361;-35
2022/12/15 07:23:35;;;;;;;3.58;2.20;;;;;;;15.12;58.97;96031.03;5108963;28;20020;-34
2022/12/15 07:26:03;;;;;;;3.67;2.38;;;;;;;15.13;58.71;96027.06;5111503;28;20031;-34
2022/12/15 07:28:29;;;;;;;4.45;2.50;;;;;;;15.07;58.97;96027.75;5111123;28;20470;-35
2022/12/15 07:30:54;;;;;;;2.80;2.13;;;;;;;15.12;58.67;96031.03;5109589;28;20030;-34
2022/12/15 07:33:20;;;;;;;3.50;2.67;;;;;;;15.09;58.84;96030.72;5110989;28;20727;-34
2022/12/15 07:35:53;;;;;;;4.53;2.35;;;;;;;15.15;58.62;96038.31;5111192;28;20026;-34
2022/12/15 07:38:18;;;;;;;3.50;2.20;;;;;;;15.09;58.62;96036.19;5111274;28;20023;-33
2022/12/15 07:40:44;;;;;;;3.28;2.30;;;;;;;15.11;58.72;96035.72;5111299;28;20494;-34
2022/12/15 07:43:10;;;;;;;3.80;2.35;;;;;;;15.02;59.11;96041.25;5111849;28;20080;-34
2022/12/15 07:45:35;;;;;;;4.35;2.78;;;;;;;15.12;58.67;96037.25;5111751;28;20016;-34
2022/12/15 07:48:01;;;;;;;10.20;5.70;;;;;;;15.16;58.61;96043.28;5111868;28;20024;-35
2022/12/15 07:50:27;;;;;;;6.40;3.60;;;;;;;15.12;58.93;96053.63;5111337;28;20409;-36
2022/12/15 07:52:53;;;;;;;5.78;3.65;;;;;;;15.06;59.13;96060.97;5111641;28;20024;-34
2022/12/15 07:55:19;;;;;;;7.07;3.92;;;;;;;15.04;59.18;96057.94;5111619;28;20117;-34
2022/12/15 07:57:47;;;;;;;5.97;3.60;;;;;;;15.10;58.89;96047.88;5111570;28;20019;-34
2022/12/15 08:00:14;;;;;;;5.07;3.20;;;;;;;15.00;59.33;96057.34;5109084;28;20149;-34
2022/12/15 08:02:40;;;;;;;4.75;3.50;;;;;;;14.98;59.07;96049.63;5110929;28;20372;-34
2022/12/15 08:05:07;;;;;;;6.18;3.85;;;;;;;14.98;59.32;96051.59;5111857;28;20396;-34
2022/12/15 08:07:32;;;;;;;4.95;2.97;;;;;;;15.03;59.05;96049.00;5111561;28;20028;-34
2022/12/15 08:09:58;;;;;;;5.32;3.20;;;;;;;14.98;59.21;96046.88;5111045;28;20023;-34
2022/12/15 08:12:26;;;;;;;4.95;2.90;;;;;;;14.97;59.10;96052.81;5111172;28;20106;-34
2022/12/15 08:14:51;;;;;;;4.43;2.75;;;;;;;15.06;58.87;96039.13;5110650;28;20027;-34
2022/12/15 08:17:17;;;;;;;4.80;3.10;;;;;;;15.03;59.14;96045.50;5111040;28;20063;-34
2022/12/15 08:19:42;;;;;;;4.25;3.08;;;;;;;15.07;58.84;96043.38;5109977;28;20127;-36
2022/12/15 08:22:08;;;;;;;4.85;3.22;;;;;;;14.99;59.36;96050.38;5111266;28;20046;-34
2022/12/15 08:24:34;;;;;;;4.53;3.20;;;;;;;14.93;59.45;96055.72;5109882;28;20028;-34
2022/12/15 08:26:59;;;;;;;5.93;3.45;;;;;;;14.99;59.34;96055.84;5110923;28;20027;-34
2022/12/15 08:29:25;;;;;;;5.13;3.33;;;;;;;14.98;59.30;96068.72;5111464;28;20019;-34
2022/12/15 08:31:50;;;;;;;4.30;3.00;;;;;;;14.97;59.20;96059.03;5109574;28;20023;-34
2022/12/15 08:34:16;;;;;;;4.90;3.00;;;;;;;15.11;58.85;96068.50;5111200;28;20106;-35
2022/12/15 08:36:41;;;;;;;4.63;2.60;;;;;;;15.07;59.26;96076.13;5111455;28;20085;-36
2022/12/15 08:39:07;;;;;;;5.10;3.00;;;;;;;15.07;59.07;96071.44;5110551;28;20042;-34
2022/12/15 08:41:33;;;;;;;4.50;2.80;;;;;;;15.09;58.92;96066.25;5112381;28;20120;-34
2022/12/15 08:44:01;;;;;;;5.90;3.30;;;;;;;15.08;59.21;96072.91;5114840;28;20487;-35
2022/12/15 08:46:29;;;;;;;5.43;3.17;;;;;;;14.98;59.48;96060.53;5114271;28;20031;-33
2022/12/15 08:48:55;;;;;;;5.93;3.20;;;;;;;15.01;59.34;96058.88;5114148;28;20050;-35
2022/12/15 08:51:22;;;;;;;5.10;3.42;;;;;;;15.07;59.24;96059.75;5100824;28;20070;-34
2022/12/15 08:53:48;;;;;;;7.75;3.40;;;;;;;14.07;62.62;96055.44;5095591;28;20023;-34
2022/12/15 08:56:17;;;;;;;7.75;5.15;;;;;;;14.47;60.96;96063.34;5096414;28;20387;-34
2022/12/15 08:58:43;;;;;;;9.05;6.25;;;;;;;14.84;59.74;96060.47;5096168;28;20058;-34
2022/12/15 09:01:17;;;;;;;7.72;5.10;;;;;;;15.00;58.98;96047.19;5096175;28;20028;-35
2022/12/15 09:03:43;;;;;;;7.03;5.38;;;;;;;15.03;58.92;96045.50;5094631;28;20555;-34
2022/12/15 09:06:41;;;;;;;5.93;4.82;;;;;;;15.09;58.67;96054.56;5095794;28;20035;-34
2022/12/15 09:09:10;;;;;;;6.72;4.40;;;;;;;15.13;58.27;96052.41;5049937;28;20437;-34
2022/12/15 09:11:36;;;;;;;6.10;4.70;;;;;;;15.12;58.27;96058.34;5095923;28;20035;-34
2022/12/15 09:14:02;;;;;;;6.38;4.38;;;;;;;15.10;58.31;96058.81;5106697;28;20015;-34
2022/12/15 09:16:28;;;;;;;6.95;4.53;;;;;;;15.12;58.21;96070.03;5110339;28;20027;-34
2022/12/15 09:18:57;;;;;;;6.15;4.50;;;;;;;15.19;58.02;96075.16;5095662;28;20028;-34
2022/12/15 09:21:25;;;;;;;5.32;3.90;;;;;;;15.20;57.88;96067.72;5095754;28;20055;-34
2022/12/15 09:23:53;;;;;;;5.60;4.50;;;;;;;15.09;58.21;96068.97;5095790;28;20095;-34
2022/12/15 09:26:20;;;;;;;7.07;4.40;;;;;;;15.11;58.29;96068.50;5095929;28;20374;-35
2022/12/15 09:28:46;;;;;;;6.38;4.30;;;;;;;15.12;58.20;96058.34;5095359;28;20031;-34
2022/12/15 09:31:19;;;;;;;4.88;3.60;;;;;;;15.14;58.19;96051.19;5095637;28;20028;-34
2022/12/15 09:33:45;;;;;;;5.13;3.65;;;;;;;15.18;58.04;96054.53;5095425;28;20476;-34
2022/12/15 09:36:12;;;;;;;5.07;3.95;;;;;;;15.14;58.13;96045.72;5095576;28;20531;-34
2022/12/15 09:38:39;;;;;;;5.40;3.25;;;;;;;15.15;58.01;96046.50;5095201;28;20081;-34
2022/12/15 09:41:16;;;;;;;5.97;3.60;;;;;;;15.11;58.16;96046.66;5095461;28;20028;-34
2022/12/15 09:43:53;;;;;;;7.32;3.45;;;;;;;15.09;58.16;96051.81;5095501;28;20028;-34
2022/12/15 09:46:36;;;;;;;4.47;3.00;;;;;;;15.14;58.01;96044.97;5095189;28;20024;-34
2022/12/15 09:49:10;;;;;;;4.30;3.08;;;;;;;15.17;57.67;96050.28;5095131;28;20525;-35
2022/12/15 09:51:42;;;;;;;4.15;2.47;;;;;;;15.16;58.09;96054.22;5094786;28;20028;-34
2022/12/15 09:54:10;;;;;;;5.35;3.00;;;;;;;15.13;58.05;96049.69;5095134;28;20040;-34
2022/12/15 09:56:44;;;;;;;3.85;2.80;;;;;;;15.16;57.94;96042.53;5094979;28;20392;-35
2022/12/15 09:59:54;;;;;;;4.13;3.10;;;;;;;15.18;57.92;96031.91;5094972;28;20028;-34
2022/12/15 10:02:45;;;;;;;4.95;2.90;;;;;;;15.09;57.95;96033.47;5094642;28;20024;-34
2022/12/15 10:05:47;;;;;;;3.78;2.85;;;;;;;15.04;58.45;96034.13;5094865;28;20028;-34
2022/12/15 10:08:14;;;;;;;3.13;2.55;;;;;;;15.08;58.29;96033.94;5095019;28;20089;-34
2022/12/15 10:10:43;;;;;;;3.88;2.70;;;;;;;15.14;58.00;96043.00;5094585;28;20020;-33
2022/12/15 10:13:18;;;;;;;4.28;2.88;;;;;;;15.15;57.94;96036.31;5094610;28;20030;-34
2022/12/15 10:15:57;;;;;;;4.47;2.90;;;;;;;15.15;58.27;96019.94;5094825;28;20047;-35
2022/12/15 10:18:45;;;;;;;3.08;2.40;;;;;;;15.14;58.10;96012.19;5093401;28;20477;-34
2022/12/15 10:21:14;;;;;;;4.15;2.70;;;;;;;15.16;57.93;96012.50;5080279;28;20035;-34
2022/12/15 10:23:40;;;;;;;3.33;2.40;;;;;;;15.17;57.83;96016.75;5094380;28;20069;-34
2022/12/15 10:26:24;;;;;;;4.13;2.80;;;;;;;15.15;57.95;96008.25;5093166;28;20062;-35
2022/12/15 10:29:17;;;;;;;4.97;3.30;;;;;;;15.19;57.95;96000.66;5094241;28;20036;-34
2022/12/15 10:31:53;;;;;;;2.67;2.42;;;;;;;15.07;58.26;95997.69;5094677;28;20024;-34
2022/12/15 10:34:29;;;;;;;3.22;2.67;;;;;;;15.11;58.20;95997.50;5094571;28;20043;-34
2022/12/15 10:36:55;;;;;;;4.85;2.85;;;;;;;15.15;57.89;95994.59;5094121;28;20058;-35
2022/12/15 10:39:22;;;;;;;3.92;2.67;;;;;;;15.16;57.92;95993.38;5094174;28;20024;-34
2022/12/15 10:42:12;;;;;;;4.72;3.00;;;;;;;15.18;58.07;95983.50;5094340;28;20464;-35
2022/12/15 10:44:41;;;;;;;3.58;2.70;;;;;;;15.16;57.94;95969.56;5093969;28;20524;-34
2022/12/15 10:47:28;;;;;;;4.00;2.85;;;;;;;15.14;58.42;95974.72;5094027;28;20028;-34
2022/12/15 10:50:14;;;;;;;4.50;2.75;;;;;;;15.16;58.12;95966.81;5099358;28;20024;-34
2022/12/15 10:52:39;;;;;;;3.17;2.75;;;;;;;15.11;58.38;95964.72;5112106;28;20032;-36
2022/12/15 10:55:38;;;;;;;3.92;2.45;;;;;;;15.11;58.30;95948.34;5114038;28;20076;-34
2022/12/15 10:58:24;;;;;;;4.10;2.70;;;;;;;15.12;58.30;95962.75;5098804;28;20039;-34
2022/12/15 11:01:07;;;;;;;4.97;2.63;;;;;;;15.18;58.07;95958.91;5113771;28;20043;-34
2022/12/15 11:03:36;;;;;;;4.90;3.07;;;;;;;15.18;58.05;95952.69;5113332;28;20393;-34
2022/12/15 11:06:13;;;;;;;3.38;2.25;;;;;;;15.13;58.34;95945.91;5114251;28;20383;-34
2022/12/15 11:08:41;;;;;;;3.45;2.72;;;;;;;15.22;57.87;95943.09;5113692;28;20379;-34
2022/12/15 11:14:22;;;;;;;5.00;2.97;;;;;;;15.08;58.61;95928.16;5114214;28;20035;-34
2022/12/15 11:16:58;;;;;;;4.07;2.95;;;;;;;15.13;58.28;95926.78;5113887;28;20466;-34
2022/12/15 11:19:45;;;;;;;4.65;2.67;;;;;;;15.04;58.67;95929.59;5094565;28;20043;-34
2022/12/15 11:22:22;;;;;;;4.75;2.90;;;;;;;15.13;58.55;95921.31;5093960;28;20032;-34
2022/12/15 11:25:05;;;;;;;4.18;2.58;;;;;;;15.18;58.23;95920.69;5093584;28;20032;-34
2022/12/15 11:27:35;;;;;;;4.63;3.20;;;;;;;15.14;58.42;95917.38;5093587;28;20019;-34
2022/12/15 11:30:12;;;;;;;5.00;3.40;;;;;;;15.07;58.70;95898.63;5093604;28;20020;-34
2022/12/15 11:32:41;;;;;;;5.63;3.47;;;;;;;15.06;58.83;95899.84;5093410;28;20487;-34
2022/12/15 11:35:17;;;;;;;4.53;3.50;;;;;;;15.13;58.57;95890.50;5093545;28;20419;-35
2022/12/15 11:37:48;;;;;;;5.60;3.90;;;;;;;15.12;58.80;95887.03;5093223;28;20053;-36
2022/12/15 11:40:49;;;;;;;6.15;4.28;;;;;;;15.15;58.40;95877.91;5093540;28;20365;-34
2022/12/15 11:43:39;;;;;;;4.80;3.50;;;;;;;15.13;58.44;95869.41;5090141;28;20024;-34
2022/12/15 11:46:07;;;;;;;6.47;4.50;;;;;;;15.09;58.76;95834.09;5093598;28;20043;-34
2022/12/15 11:48:47;;;;;;;6.57;4.13;;;;;;;15.19;58.43;95818.38;5093508;28;20101;-34
2022/12/15 11:51:13;;;;;;;5.97;4.38;;;;;;;15.10;58.93;95793.88;5093391;28;20464;-34
2022/12/15 11:53:53;;;;;;;7.38;4.45;;;;;;;15.07;58.97;95811.22;5093100;28;20061;-34
2022/12/15 11:57:00;;;;;;;6.65;4.75;;;;;;;15.10;58.90;95815.72;5093411;28;20111;-34
2022/12/15 11:59:45;;;;;;;6.65;4.38;;;;;;;15.19;58.56;95823.09;5090133;28;20097;-35
2022/12/15 12:02:25;;;;;;;5.65;4.00;;;;;;;15.17;58.68;95825.53;5093267;28;20024;-35
2022/12/15 12:05:17;;;;;;;6.40;4.30;;;;;;;15.19;58.69;95832.06;5093255;28;20045;-34
2022/12/15 12:07:50;;;;;;;7.03;4.20;;;;;;;15.13;58.91;95833.16;5092999;28;20031;-34
2022/12/15 12:10:37;;;;;;;5.85;4.25;;;;;;;15.13;58.76;95853.03;5093099;28;20052;-35
2022/12/15 12:13:24;;;;;;;5.78;4.13;;;;;;;15.16;58.68;95852.09;5093151;28;20028;-35
2022/12/15 12:16:10;;;;;;;6.15;4.13;;;;;;;15.08;59.25;95856.44;5096226;28;20024;-34
2022/12/15 12:18:45;;;;;;;5.05;4.15;;;;;;;15.13;59.02;95863.19;5096976;28;20031;-35
2022/12/15 12:21:17;;;;;;;7.78;5.07;;;;;;;15.20;58.94;95860.13;5096949;28;20069;-34
2022/12/15 12:24:02;;;;;;;7.72;5.43;;;;;;;15.21;58.72;95856.13;5096538;28;20045;-35
2022/12/15 12:26:43;;;;;;;9.80;6.15;;;;;;;15.07;59.31;95854.94;5096873;28;20031;-34
2022/12/15 12:29:17;;;;;;;9.13;6.40;;;;;;;15.08;59.27;95835.31;5096788;28;20028;-34
2022/12/15 12:32:04;;;;;;;8.57;5.95;;;;;;;15.14;59.15;95831.94;5096560;28;20103;-34
2022/12/15 12:34:43;;;;;;;10.13;6.13;;;;;;;15.06;59.39;95817.91;5096559;28;20027;-36
2022/12/15 12:37:36;;;;;;;9.30;5.68;;;;;;;15.15;59.08;95819.78;5095245;28;20422;-34
2022/12/15 12:40:13;;;;;;;7.85;5.70;;;;;;;15.01;59.69;95818.56;5097048;28;20468;-34
2022/12/15 12:42:56;;;;;;;7.43;5.20;;;;;;;15.05;59.71;95816.41;5096391;28;20040;-34
2022/12/15 12:45:28;;;;;;;7.38;5.50;;;;;;;14.95;60.05;95821.22;5095071;28;20110;-34
2022/12/15 12:47:56;;;;;;;8.40;5.75;;;;;;;14.98;60.05;95819.50;5096631;28;20031;-34
2022/12/15 12:50:25;;;;;;;7.55;5.45;;;;;;;14.85;60.88;95816.28;5096179;28;20124;-34
2022/12/15 12:52:55;;;;;;;7.15;5.20;;;;;;;14.75;61.45;95821.06;5096161;28;20353;-34
2022/12/15 12:55:37;;;;;;;6.15;4.25;;;;;;;14.85;61.35;95810.81;5096415;28;20408;-34
2022/12/15 12:58:02;;;;;;;5.90;4.45;;;;;;;14.98;61.01;95811.31;5096060;28;20388;-35
2022/12/15 13:00:30;;;;;;;5.10;4.32;;;;;;;14.87;61.40;95802.91;5096258;28;20106;-35
2022/12/15 13:03:11;;;;;;;5.57;3.78;;;;;;;14.70;62.62;95792.47;5095787;28;20055;-35
2022/12/15 13:05:38;;;;;;;6.28;3.88;;;;;;;14.73;62.46;95788.78;5095992;28;20031;-35
2022/12/15 13:08:04;;;;;;;5.57;3.40;;;;;;;14.68;63.52;95791.41;5109819;28;20034;-35
2022/12/15 13:10:40;;;;;;;5.03;3.05;;;;;;;14.76;63.01;95792.56;5116291;28;20106;-36
2022/12/15 13:13:17;;;;;;;5.50;2.78;;;;;;;14.66;63.83;95780.22;5113388;28;20032;-34
2022/12/15 13:15:46;;;;;;;4.13;2.92;;;;;;;14.77;63.51;95782.38;5095816;28;20157;-34
2022/12/15 13:18:24;;;;;;;3.47;2.42;;;;;;;14.61;64.12;95786.31;5095850;28;20024;-34
2022/12/15 13:20:54;;;;;;;5.45;2.90;;;;;;;14.64;64.27;95780.69;5095654;28;20032;-34
2022/12/15 13:23:23;;;;;;;4.35;2.90;;;;;;;14.73;63.82;95777.84;5095771;28;20468;-35
2022/12/15 13:25:51;;;;;;;4.45;2.70;;;;;;;14.71;63.99;95785.75;5094731;28;20036;-35
2022/12/15 13:28:43;;;;;;;5.00;2.50;;;;;;;14.57;64.79;95786.50;5095499;28;20031;-34
2022/12/15 13:31:12;;;;;;;3.60;2.80;;;;;;;14.76;63.66;95772.69;5095824;28;20028;-34
2022/12/15 13:34:17;;;;;;;4.10;2.28;;;;;;;14.80;64.06;95770.53;5095348;28;20052;-34
2022/12/15 13:36:45;;;;;;;3.75;2.17;;;;;;;14.62;64.77;95788.56;5094000;28;20035;-34
2022/12/15 13:39:11;;;;;;;5.20;2.63;;;;;;;14.84;63.65;95771.09;5095233;28;20024;-35
2022/12/15 13:41:37;;;;;;;5.38;2.97;;;;;;;14.92;62.94;95783.16;5095466;28;20020;-34
2022/12/15 13:44:14;;;;;;;4.63;2.40;;;;;;;14.84;63.46;95771.09;5095324;28;20020;-34
2022/12/15 13:46:45;;;;;;;5.68;3.28;;;;;;;14.74;63.82;95757.53;5095374;28;20487;-34
2022/12/15 13:49:33;;;;;;;5.65;2.60;;;;;;;14.73;64.30;95766.94;5095181;28;20035;-35
2022/12/15 13:52:11;;;;;;;3.55;2.13;;;;;;;14.37;65.84;95767.22;5093755;28;20482;-34
2022/12/15 13:54:41;;;;;;;4.70;2.20;;;;;;;14.67;64.69;95738.81;5095334;28;20521;-34
2022/12/15 13:57:14;;;;;;;3.67;2.10;;;;;;;14.62;65.22;95744.16;5095085;28;20491;-34
2022/12/15 13:59:47;;;;;;;3.88;2.55;;;;;;;14.53;65.77;95747.72;5094842;28;20020;-34
2022/12/15 14:02:26;;;;;;;8.20;3.67;;;;;;;14.70;65.14;95737.13;5094808;28;20032;-34
2022/12/15 14:05:10;;;;;;;5.68;2.13;;;;;;;14.76;64.78;95743.41;5095062;28;20035;-34
2022/12/15 14:07:36;;;;;;;4.28;2.10;;;;;;;14.81;64.34;95733.84;5094731;28;20059;-35
2022/12/15 14:10:06;;;;;;;6.00;2.00;;;;;;;14.88;64.07;95727.97;5094816;28;20030;-34
2022/12/15 14:12:32;;;;;;;5.32;2.17;;;;;;;14.94;63.63;95724.13;5094487;28;20074;-35
2022/12/15 14:14:59;;;;;;;4.88;2.33;;;;;;;14.50;66.01;95713.19;5094532;28;20464;-34
2022/12/15 14:17:24;;;;;;;4.72;2.50;;;;;;;14.77;64.86;95725.06;5093613;28;20111;-34